createdAt,value
2017-12-05T00:02:04.700Z,9.37
2017-12-05T00:07:07.231Z,9.40
2017-12-05T00:12:09.778Z,10.23
2017-12-05T00:17:12.314Z,7.77
2017-12-05T00:22:14.865Z,8.97
2017-12-05T00:27:18.175Z,8.73
2017-12-05T00:32:20.719Z,10.77
2017-12-05T00:37:23.234Z,9.93
2017-12-05T00:42:25.779Z,8.87
2017-12-05T00:47:28.311Z,9.60
2017-12-05T00:52:30.858Z,10.67
2017-12-05T00:57:33.400Z,11.30
2017-12-05T01:02:35.943Z,10.00
2017-12-05T01:07:38.486Z,10.00
2017-12-05T01:12:41.023Z,11.40
2017-12-05T01:17:43.566Z,11.17
2017-12-05T01:22:46.108Z,10.10
2017-12-05T01:27:48.650Z,10.93
2017-12-05T01:32:51.945Z,9.17
2017-12-05T01:37:54.515Z,9.70
2017-12-05T01:42:57.063Z,10.90
2017-12-05T01:48:00.374Z,11.23
2017-12-05T01:53:02.914Z,10.20
2017-12-05T01:58:05.446Z,10.33
2017-12-05T02:03:07.995Z,10.73
2017-12-05T02:08:10.534Z,10.53
2017-12-05T02:13:13.082Z,10.37
2017-12-05T02:18:16.410Z,12.20
2017-12-05T02:23:18.952Z,11.03
2017-12-05T02:28:21.488Z,10.57
2017-12-05T02:33:24.789Z,11.07
2017-12-05T02:38:27.383Z,9.87
2017-12-05T02:43:29.930Z,10.40
2017-12-05T02:48:32.470Z,10.67
2017-12-05T02:53:35.011Z,9.80
2017-12-05T02:58:37.546Z,9.50
2017-12-05T03:03:40.085Z,8.60
2017-12-05T03:08:42.633Z,10.90
2017-12-05T03:13:45.190Z,9.60
2017-12-05T03:18:47.734Z,10.07
2017-12-05T03:23:50.266Z,8.77
2017-12-05T03:28:52.802Z,8.40
2017-12-05T03:33:55.334Z,8.90
2017-12-05T03:38:57.881Z,9.27
2017-12-05T03:44:01.199Z,9.17
2017-12-05T03:49:03.722Z,9.30
2017-12-05T03:54:06.254Z,8.80
2017-12-05T03:59:08.807Z,10.03
2017-12-05T04:04:11.328Z,9.73
2017-12-05T04:09:13.866Z,10.17
2017-12-05T04:14:16.410Z,10.50
2017-12-05T04:19:18.946Z,9.63
2017-12-05T04:24:21.489Z,10.30
2017-12-05T04:29:24.031Z,10.17
2017-12-05T04:34:26.561Z,10.07
2017-12-05T04:39:29.104Z,11.67
2017-12-05T04:44:31.658Z,12.17
2017-12-05T04:49:34.203Z,13.17
2017-12-05T04:54:37.138Z,11.00
2017-12-05T04:59:40.442Z,11.40
2017-12-05T05:04:42.984Z,15.47
2017-12-05T05:09:45.521Z,11.17
2017-12-05T05:14:48.067Z,10.13
2017-12-05T05:19:50.614Z,10.93
2017-12-05T05:24:53.154Z,9.47
2017-12-05T05:29:55.692Z,10.10
2017-12-05T05:34:58.235Z,11.00
2017-12-05T05:40:00.798Z,12.60
2017-12-05T05:45:03.343Z,9.30
2017-12-05T05:50:05.887Z,8.87
2017-12-05T05:55:09.202Z,9.67
2017-12-05T06:00:11.752Z,9.37
2017-12-05T06:05:14.291Z,9.30
2017-12-05T06:10:16.842Z,16.63
2017-12-05T06:15:19.402Z,8.90
2017-12-05T06:20:22.728Z,8.67
2017-12-05T06:25:25.267Z,8.63
2017-12-05T06:30:27.854Z,8.10
2017-12-05T06:35:30.405Z,8.93
2017-12-05T06:40:32.947Z,8.53
2017-12-05T06:45:35.494Z,8.40
2017-12-05T06:50:38.031Z,7.97
2017-12-05T06:55:40.557Z,7.93
2017-12-05T07:00:43.116Z,6.60
2017-12-05T07:05:45.647Z,8.03
2017-12-05T07:10:48.201Z,8.23
2017-12-05T07:15:51.511Z,6.30
2017-12-05T07:20:54.810Z,8.30
2017-12-05T07:25:57.351Z,6.40
2017-12-05T07:30:59.899Z,7.87
2017-12-05T07:36:02.453Z,6.50
2017-12-05T07:41:05.008Z,6.50
2017-12-05T07:46:07.558Z,6.77
2017-12-05T07:51:10.095Z,6.60
2017-12-05T07:56:12.643Z,6.07
2017-12-05T08:01:15.174Z,6.50
2017-12-05T08:06:17.724Z,7.17
2017-12-05T08:11:20.262Z,6.53
2017-12-05T08:16:22.819Z,6.80
2017-12-05T08:21:26.140Z,6.50
2017-12-05T08:26:28.683Z,6.97
2017-12-05T08:31:31.219Z,7.40
2017-12-05T08:36:33.754Z,7.80
2017-12-05T08:41:36.291Z,8.83
2017-12-05T08:46:38.842Z,8.20
2017-12-05T08:51:41.374Z,9.87
2017-12-05T08:56:43.910Z,9.33
2017-12-05T09:01:46.447Z,8.70
2017-12-05T09:06:49.006Z,8.73
2017-12-05T09:11:52.411Z,8.80
2017-12-05T09:16:54.947Z,9.80
2017-12-05T09:21:57.498Z,9.13
2017-12-05T09:27:00.063Z,8.23
2017-12-05T09:32:02.598Z,7.50
2017-12-05T09:37:05.144Z,7.03
2017-12-05T09:42:07.679Z,7.73
2017-12-05T09:47:10.260Z,8.30
2017-12-05T09:52:12.770Z,9.10
2017-12-05T09:57:16.076Z,9.00
2017-12-05T10:02:18.623Z,10.00
2017-12-05T10:07:21.164Z,8.80
2017-12-05T10:12:23.694Z,9.37
2017-12-05T10:17:26.247Z,10.30
2017-12-05T10:22:28.795Z,10.03
2017-12-05T10:27:31.335Z,10.90
2017-12-05T10:32:33.915Z,10.63
2017-12-05T10:37:36.476Z,9.63
2017-12-05T10:42:38.999Z,11.53
2017-12-05T10:47:41.538Z,12.20
2017-12-05T10:52:44.090Z,11.07
2017-12-05T10:57:46.644Z,12.37
2017-12-05T11:02:49.191Z,11.90
2017-12-05T11:07:51.739Z,12.20
2017-12-05T11:12:54.306Z,12.10
2017-12-05T11:17:56.831Z,10.40
2017-12-05T11:22:59.374Z,10.53
2017-12-05T11:28:01.910Z,10.83
2017-12-05T11:33:05.223Z,11.87
2017-12-05T11:38:07.778Z,10.27
2017-12-05T11:43:10.331Z,10.50
2017-12-05T11:48:13.648Z,9.60
2017-12-05T11:53:16.195Z,10.00
2017-12-05T11:58:18.740Z,10.60
2017-12-05T12:03:22.044Z,10.00
2017-12-05T12:08:25.346Z,10.90
2017-12-05T12:13:27.882Z,11.60
2017-12-05T12:18:30.414Z,8.87
2017-12-05T12:23:32.962Z,9.87
2017-12-05T12:28:35.510Z,10.13
2017-12-05T12:33:38.051Z,9.20
2017-12-05T12:38:41.374Z,10.00
2017-12-05T12:43:44.683Z,9.50
2017-12-05T12:48:48.013Z,9.13
2017-12-05T12:53:51.323Z,8.93
2017-12-05T12:58:53.854Z,8.20
2017-12-05T13:03:56.390Z,9.10
2017-12-05T13:08:58.934Z,8.23
2017-12-05T13:14:01.470Z,7.30
2017-12-05T13:19:04.021Z,7.43
2017-12-05T13:24:06.554Z,8.33
2017-12-05T13:29:09.106Z,8.17
2017-12-05T13:34:12.427Z,8.73
2017-12-05T13:39:14.963Z,6.43
2017-12-05T13:44:18.275Z,6.93
2017-12-05T13:49:21.587Z,7.67
2017-12-05T13:54:24.111Z,7.67
2017-12-05T13:59:26.646Z,7.73
2017-12-05T14:04:29.188Z,7.33
2017-12-05T14:09:31.723Z,6.70
2017-12-05T14:14:34.268Z,7.20
2017-12-05T14:19:36.806Z,7.47
2017-12-05T14:24:39.382Z,8.07
2017-12-05T14:29:41.910Z,7.33
2017-12-05T14:34:44.458Z,8.40
2017-12-05T14:39:46.998Z,7.73
2017-12-05T14:44:49.543Z,7.37
2017-12-05T14:49:52.874Z,7.57
2017-12-05T14:54:56.183Z,7.00
2017-12-05T14:59:58.718Z,7.20
2017-12-05T15:05:01.256Z,7.17
2017-12-05T15:10:03.787Z,6.63
2017-12-05T15:15:06.336Z,8.60
2017-12-05T15:20:08.882Z,7.63
2017-12-05T15:25:11.426Z,7.93
2017-12-05T15:30:14.754Z,8.30
2017-12-05T15:35:17.294Z,8.10
2017-12-05T15:40:19.843Z,7.83
2017-12-05T15:45:22.391Z,7.17
2017-12-05T15:50:24.931Z,7.17
2017-12-05T15:55:28.248Z,7.30
2017-12-05T16:00:30.782Z,7.57
2017-12-05T16:05:34.107Z,8.00
2017-12-05T16:10:36.647Z,7.10
2017-12-05T16:15:39.185Z,7.80
2017-12-05T16:20:41.728Z,7.53
2017-12-05T16:25:44.267Z,7.90
2017-12-05T16:30:46.894Z,7.27
2017-12-05T16:35:50.201Z,7.17
2017-12-05T16:40:52.751Z,7.20
2017-12-05T16:45:55.343Z,7.70
2017-12-05T16:50:58.599Z,7.20
2017-12-05T16:56:01.129Z,8.10
2017-12-05T17:01:03.663Z,8.30
2017-12-05T17:06:06.204Z,8.27
2017-12-05T17:11:08.742Z,8.50
2017-12-05T17:16:11.289Z,10.37
2017-12-05T17:21:13.825Z,8.50
2017-12-05T17:26:16.356Z,10.40
2017-12-05T17:31:18.902Z,9.23
2017-12-05T17:36:22.212Z,9.90
2017-12-05T17:41:24.764Z,7.90
2017-12-05T17:46:27.312Z,9.57
2017-12-05T17:51:29.855Z,8.50
2017-12-05T17:56:32.394Z,8.07
2017-12-05T18:01:34.931Z,8.27
2017-12-05T18:06:37.467Z,9.27
2017-12-05T18:11:40.001Z,8.77
2017-12-05T18:16:42.538Z,8.17
2017-12-05T18:21:45.084Z,7.20
2017-12-05T18:26:47.615Z,7.97
2017-12-05T18:31:50.160Z,8.07
2017-12-05T18:36:52.724Z,7.60
2017-12-05T18:41:55.279Z,6.97
2017-12-05T18:46:57.849Z,7.20
2017-12-05T18:52:00.413Z,7.40
2017-12-05T18:57:03.722Z,8.27
2017-12-05T19:02:07.028Z,8.53
2017-12-05T19:07:09.600Z,8.67
2017-12-05T19:12:25.134Z,7.97
2017-12-05T19:17:36.126Z,8.10
2017-12-05T19:22:40.966Z,8.47
2017-12-05T19:27:45.217Z,9.20
2017-12-05T19:32:56.401Z,8.63
2017-12-05T19:38:01.455Z,9.80
2017-12-05T19:43:06.545Z,8.47
2017-12-05T19:48:15.631Z,7.30
2017-12-05T19:58:15.589Z,9.13
2017-12-05T20:03:19.851Z,8.73
2017-12-05T20:08:31.558Z,9.27
2017-12-05T20:14:00.939Z,10.30
2017-12-05T20:24:24.968Z,9.47
2017-12-05T20:29:30.643Z,9.60
2017-12-05T20:34:34.360Z,9.23
2017-12-05T20:39:46.208Z,9.43
2017-12-05T20:44:54.114Z,8.73
2017-12-05T20:49:56.687Z,9.37
2017-12-05T20:54:59.227Z,9.40
2017-12-05T21:00:01.767Z,8.40
2017-12-05T21:05:04.295Z,8.93
2017-12-05T21:10:06.840Z,9.17
2017-12-05T21:15:10.138Z,9.20
2017-12-05T21:20:12.768Z,8.57
2017-12-05T21:25:15.296Z,8.60
2017-12-05T21:30:17.855Z,8.33
2017-12-05T21:35:20.379Z,9.50
2017-12-05T21:40:22.983Z,8.63
2017-12-05T21:45:25.527Z,9.40
2017-12-05T21:50:28.083Z,10.20
2017-12-05T21:55:30.622Z,9.57
2017-12-05T22:00:33.175Z,9.00
2017-12-05T22:05:35.702Z,7.70
2017-12-05T22:10:38.223Z,9.10
2017-12-05T22:15:40.770Z,7.43
2017-12-05T22:20:43.302Z,7.87
2017-12-05T22:25:45.834Z,7.20
2017-12-05T22:30:49.147Z,7.03
2017-12-05T22:35:52.455Z,8.60
2017-12-05T22:40:54.994Z,7.60
2017-12-05T22:45:57.529Z,6.23
2017-12-05T22:51:00.087Z,7.40
2017-12-05T22:56:02.618Z,8.07
2017-12-05T23:01:05.927Z,6.63
2017-12-05T23:06:08.462Z,7.30
2017-12-05T23:11:10.987Z,7.43
2017-12-05T23:16:14.307Z,7.73
2017-12-05T23:21:16.847Z,9.07
2017-12-05T23:26:19.487Z,7.00
2017-12-05T23:31:22.806Z,8.70
2017-12-05T23:36:26.123Z,8.13
2017-12-05T23:41:29.514Z,8.57
2017-12-05T23:46:32.054Z,9.33
2017-12-05T23:51:35.354Z,7.60
2017-12-05T23:56:38.647Z,7.50
